メインページ
METAR-TAF:

METAR-TAF

空港 :

カイロ, エジプト

カイロ国際空港

緯度: 30-08N, 経度: 031-24E, 海抜: 64m

現時点の気象観測

当レポートは18分前の15:30(UTC)に作成
の風 8kt
気温 29°C
湿度 35%
気圧 1014 hPa
視程10km以上
1,500メートル以下は雲なし、積乱雲なし

METAR: HECA 191530Z 01008KT CAVOK 29/12 Q1014 NOSIG

時間: 17:48 (15:48 UTC)

予報

当レポートは4時間48分前の11:00(UTC)に作成
予報は19日の 12時(UTC)から 20日の 18時(UTC)まで有効
北/北西の風 10kt
視程10km以上
1,500メートル以下は雲なし、積乱雲なし
20日の 00時(UTC)から 20日の 06時(UTC)まで一時的に
変向風 3kt
視程: 6000m
20日の 03時(UTC)から 20日の 06時(UTC)まで一時的に
視程: 4000m

TAF: HECA 191100Z 1912/2018 33010KT CAVOK TEMPO 2000/2006 VRB03KT 6000 NSC TEMPO 2003/2006 4000 BR NSC

4,000以上の空港の気象観測と天気予報(METAR報とTAF報)

利用可能な観測所は地図上に黄色い丸と赤い丸で示す。

丸の上にカーソルを重ねると観測所名を参照できる。

次にクリックすると気象観測と天気予報を参照できる。

マップの切り替え:黒色「×」印の緑ボタンをクリックして拡大、「-」印の緑ボタンをクリックして縮小、緑色の三角印をクリックして隣りの地図に切り替え


METAR-TAF: